Date,TemperatureHighF,TemperatureAvgF,TemperatureLowF,DewpointHighF,DewpointAvgF,DewpointLowF,HumidityHigh,HumidityAvg,HumidityLow,PressureMaxIn,PressureMinIn,WindSpeedMaxMPH,WindSpeedAvgMPH,GustSpeedMaxMPH,PrecipitationSumIn
2013-1-1,48,37,27,23,15,7,69,43,21,30.28,30.19,12,4,18,0.00
2013-1-2,52,38,25,12,10,8,49,32,19,30.27,30.14,5,2,12,0.00
2013-1-3,54,41,28,15,11,7,45,29,18,30.32,30.15,8,3,13,0.00
2013-1-4,54,40,27,11,6,3,37,26,15,30.35,30.23,4,2,9,0.00
2013-1-5,53,40,28,11,7,4,37,26,16,30.34,30.13,3,1,9,0.00
2013-1-6,49,43,35,34,28,8,80,58,25,30.14,29.97,19,7,25,0.00
2013-1-7,60,45,35,32,25,18,72,48,21,30.15,30.03,12,3,28,0.00
2013-1-8,63,50,40,33,28,19,56,42,30,30.25,30.12,4,2,9,0.00
2013-1-9,62,53,40,38,31,27,65,44,31,30.25,29.92,19,4,32,0.00
2013-1-10,48,38,33,39,26,20,77,62,48,30.00,29.83,32,22,46,0.00
2013-1-11,38,35,32,23,21,16,65,57,46,30.10,29.98,25,12,38,0.00
2013-1-12,43,34,23,22,17,10,73,52,27,30.14,30.01,11,3,18,0.00
2013-1-13,42,32,21,17,11,2,63,43,28,30.16,30.00,18,4,28,0.00
2013-1-14,37,27,14,3,-1,-5,51,32,19,30.36,30.16,5,2,12,0.00
2013-1-15,46,34,23,12,5,-3,39,29,21,30.50,30.34,5,1,10,0.00
2013-1-16,55,42,31,22,17,11,54,37,24,30.47,30.33,4,2,10,0.00
2013-1-17,60,46,34,16,12,5,40,26,14,30.38,30.27,7,3,13,0.00
2013-1-18,61,49,37,10,7,5,26,19,12,30.33,30.21,8,4,15,0.00
2013-1-19,62,48,34,9,6,3,27,18,12,30.36,30.22,4,3,10,0.00
2013-1-20,63,48,34,7,4,1,26,17,10,30.29,30.16,6,3,12,0.00
2013-1-21,65,50,36,8,4,1,23,16,9,30.29,30.17,6,3,12,0.00
2013-1-22,65,51,36,13,7,2,24,17,12,30.24,30.14,7,2,13,0.00
2013-1-23,62,53,44,17,12,9,24,20,15,30.20,30.09,4,1,10,0.00
2013-1-24,55,51,47,47,42,18,90,73,23,30.25,30.12,5,2,11,0.16
2013-1-25,56,52,49,48,46,45,93,83,67,30.25,30.06,7,2,12,0.09
2013-1-26,58,52,49,49,46,41,94,79,62,30.06,29.90,19,7,32,0.09
2013-1-27,50,43,39,41,32,26,77,66,54,29.99,29.89,27,18,44,0.01
2013-1-28,42,40,38,28,26,25,63,58,52,30.17,29.96,25,11,39,0.00
2013-1-29,54,46,38,33,30,27,67,54,42,30.27,30.07,21,10,38,0.00
2013-1-30,62,51,39,34,30,28,69,48,31,30.38,30.27,11,2,18,0.00
2013-1-31,65,55,39,33,31,28,66,42,28,30.33,30.19,6,2,10,0.00
2013-2-1,65,52,40,33,30,28,66,44,28,30.27,30.19,6,2,11,0.00
2013-2-2,64,56,47,42,31,28,63,40,26,30.34,30.23,6,1,14,0.00
2013-2-3,66,57,45,42,34,24,74,44,24,30.24,30.07,16,5,26,0.00
2013-2-4,69,56,43,31,28,24,53,35,18,30.17,30.03,6,2,12,0.00
2013-2-5,70,57,45,42,30,23,71,39,17,30.07,29.93,19,6,32,0.00
2013-2-6,61,52,45,42,31,11,77,48,20,30.09,29.94,25,9,38,0.00
2013-2-7,63,46,35,34,24,12,67,43,21,30.10,29.90,24,8,36,0.00
2013-2-8,45,39,36,33,28,25,79,64,46,29.90,29.77,23,13,40,0.00
2013-2-9,46,40,37,28,24,17,70,52,38,30.02,29.81,22,13,37,0.00
2013-2-10,52,41,29,26,20,15,57,43,26,30.06,29.95,17,4,28,0.00
2013-2-11,53,41,33,23,13,4,61,35,15,30.25,30.05,9,3,16,0.00
2013-2-12,56,43,30,20,11,7,45,29,17,30.36,30.22,5,1,13,0.00
2013-2-13,63,49,34,31,21,16,53,36,17,30.32,30.16,7,1,14,0.00
2013-2-14,67,52,40,26,22,17,46,32,20,30.28,30.17,8,3,20,0.00
2013-2-15,68,54,42,26,21,14,45,28,14,30.37,30.27,12,4,22,0.00
2013-2-16,67,55,44,26,17,12,33,23,13,30.35,30.03,10,3,15,0.00
2013-2-17,65,57,50,34,26,17,49,32,19,30.03,29.85,23,12,35,0.00
2013-2-18,64,51,38,37,26,17,72,40,16,30.04,29.88,15,5,26,0.00
2013-2-19,49,42,34,36,32,23,90,68,41,29.88,29.57,24,13,42,0.20
2013-2-20,42,37,32,29,26,22,77,65,46,29.92,29.52,33,22,49,0.20
2013-2-21,51,42,37,31,27,17,67,55,26,30.09,29.89,24,14,36,0.00
2013-2-22,58,46,33,29,25,19,70,46,22,30.20,30.08,16,5,26,0.00
2013-2-23,53,47,43,34,30,24,67,51,39,30.13,29.82,40,17,62,0.01
2013-2-24,55,44,33,33,9,1,68,26,12,30.26,30.09,12,4,19,0.01
2013-2-25,61,47,35,25,13,6,38,26,15,30.24,30.04,27,5,38,0.00
2013-2-26,61,51,43,27,21,11,49,33,15,30.23,30.00,26,7,38,0.00
2013-2-27,60,48,35,22,12,9,39,25,13,30.36,30.23,7,2,16,0.00
2013-2-28,66,53,39,29,17,9,39,26,11,30.45,30.34,7,2,13,0.00
2013-3-1,72,58,41,27,21,16,49,26,14,30.45,30.28,10,3,16,0.00
2013-3-2,74,61,45,33,24,20,39,26,15,30.36,30.12,11,3,17,0.00
2013-3-3,66,59,53,39,32,22,58,38,24,30.13,29.89,29,12,42,0.00
2013-3-4,69,58,50,39,35,31,58,44,24,30.10,29.89,29,6,42,0.00
2013-3-5,66,55,42,38,32,26,65,44,23,30.09,29.95,18,7,28,0.00
2013-3-6,57,48,41,39,36,30,76,64,49,30.06,29.96,20,10,32,0.00
2013-3-7,52,46,39,37,34,31,79,63,47,29.97,29.82,17,9,27,0.00
2013-3-8,44,40,34,36,33,31,91,76,63,29.94,29.74,19,6,37,0.28
2013-3-9,49,45,41,36,33,28,81,64,48,30.24,29.93,24,14,40,0.01
2013-3-10,65,52,36,37,21,13,62,34,13,30.36,30.23,10,2,17,0.00
2013-3-11,72,57,39,36,26,14,62,35,11,30.27,30.09,8,2,15,0.00
2013-3-12,77,61,43,32,23,16,45,25,11,30.22,30.09,6,2,11,0.00
2013-3-13,81,66,48,28,25,23,40,23,12,30.27,30.14,5,2,12,0.00
2013-3-14,85,70,50,44,32,27,41,26,12,30.24,30.08,15,4,25,0.00
2013-3-15,83,70,62,47,39,28,52,34,14,30.09,29.92,27,12,43,0.00
2013-3-16,74,64,57,47,42,35,66,47,27,30.00,29.88,29,16,43,0.00
2013-3-17,74,62,55,45,34,23,64,37,17,30.03,29.91,28,16,46,0.00
2013-3-18,73,62,53,38,29,20,53,30,15,30.09,29.92,25,10,42,0.00
2013-3-19,74,63,53,36,33,25,45,33,23,30.11,30.01,23,14,36,0.00
2013-3-20,68,60,54,42,38,32,58,46,27,30.11,29.92,27,14,45,0.00
2013-3-21,69,58,52,43,40,34,62,52,28,29.98,29.77,35,21,54,0.00
2013-3-22,64,54,48,39,35,27,65,49,30,29.95,29.80,35,20,53,0.00
2013-3-23,68,56,41,35,24,10,62,34,11,30.11,29.91,25,6,40,0.00
2013-3-24,73,60,48,34,19,7,35,22,10,30.10,29.93,21,6,34,0.00
2013-3-25,76,63,51,30,26,19,38,25,12,30.04,29.91,16,-2,23,0.00
2013-3-26,72,62,55,37,31,23,47,32,19,29.97,29.88,19,12,32,0.00
2013-3-27,69,62,56,43,38,35,61,43,29,30.04,29.87,20,12,35,0.00
2013-3-28,71,60,52,45,41,32,73,51,25,30.08,29.98,19,11,34,0.00
2013-3-29,77,64,51,43,37,26,57,38,16,30.16,30.05,13,4,24,0.00
2013-3-30,76,65,51,41,32,-100,46,31,19,30.11,30.03,17,7,26,0.00
2013-3-31,64,57,52,50,43,38,88,62,39,30.09,30.01,14,7,24,0.24
2013-4-1,62,54,47,46,40,37,83,59,41,30.12,29.98,29,15,43,0.07
2013-4-2,70,59,52,45,41,37,65,52,32,30.13,29.98,23,14,39,0.01
2013-4-3,80,66,51,46,37,27,63,38,15,30.15,30.02,14,3,22,0.00
2013-4-4,71,64,58,49,43,37,68,47,33,30.09,30.00,25,11,34,0.00
2013-4-5,66,59,55,48,44,36,70,57,44,30.06,29.91,33,17,51,0.01
2013-4-6,66,58,53,44,40,31,64,51,33,30.08,29.89,36,21,57,0.01
2013-4-7,69,59,54,43,40,37,64,50,31,30.02,29.77,34,17,55,0.00
2013-4-8,57,48,41,43,35,30,78,62,51,29.83,29.51,45,26,65,0.04
2013-4-9,63,53,44,35,28,21,66,39,23,30.11,29.83,23,12,35,0.02
2013-4-10,76,61,43,33,21,14,36,23,11,30.19,29.98,24,8,41,0.00
2013-4-11,77,66,59,45,38,28,54,37,26,30.01,29.76,27,16,40,0.00
2013-4-12,81,68,54,46,40,32,58,40,17,29.93,29.80,18,8,31,0.00
2013-4-13,75,68,59,45,39,31,55,37,22,29.87,29.73,25,16,35,0.00
2013-4-14,70,63,57,44,39,31,53,41,32,29.79,29.68,31,14,49,0.00
2013-4-15,61,53,45,40,36,29,72,53,31,29.84,29.70,25,15,38,0.00
2013-4-16,54,46,37,31,27,21,66,48,30,29.98,29.78,24,14,37,0.00
2013-4-17,60,51,40,25,22,16,50,32,21,30.20,29.98,17,8,29,0.00
2013-4-18,67,56,43,22,12,7,29,19,10,30.31,30.21,9,3,17,0.00
2013-4-19,76,62,46,29,21,11,33,22,9,30.26,29.97,27,8,46,0.00
2013-4-20,81,69,61,42,32,24,38,26,12,30.10,29.97,24,11,43,0.00
2013-4-21,85,72,58,39,33,27,35,25,13,30.06,29.94,20,7,33,0.00
2013-4-22,83,74,66,37,32,19,31,22,15,30.00,29.80,24,12,46,0.00
2013-4-23,78,69,60,42,26,17,41,22,11,30.06,29.80,24,7,46,0.00
2013-4-24,80,69,54,42,27,15,45,23,9,29.97,29.82,14,7,25,0.00
2013-4-25,77,66,50,44,40,34,67,41,22,30.02,29.87,28,10,42,0.00
2013-4-26,84,70,60,47,38,19,49,35,10,30.18,30.02,28,10,41,0.00
2013-4-27,89,75,62,46,38,21,47,29,9,30.21,30.04,21,10,33,0.00
2013-4-28,89,77,68,47,41,32,43,29,14,30.05,29.89,23,14,37,0.00
2013-4-29,88,78,70,45,39,28,36,26,19,29.92,29.75,25,15,44,0.00
2013-4-30,82,75,68,47,41,33,41,31,17,29.78,29.69,31,16,54,0.00
2013-5-1,81,70,55,39,15,-12,49,18,3,30.20,29.77,22,8,47,0.00
2013-5-2,79,66,54,5,-4,-11,12,6,3,30.37,30.18,12,4,24,0.00
2013-5-3,85,72,56,30,6,-5,20,9,3,30.19,29.84,16,4,26,0.00
2013-5-4,83,74,63,39,32,25,35,22,12,29.86,29.69,23,11,37,0.00
2013-5-5,61,56,51,43,38,22,72,53,25,29.94,29.73,23,14,36,0.00
2013-5-6,61,54,49,48,44,39,91,69,48,29.98,29.89,20,10,29,0.09
2013-5-7,62,56,50,43,41,38,75,58,45,30.01,29.95,22,12,33,0.05
2013-5-8,72,61,53,47,44,40,66,53,38,30.07,29.97,18,12,34,0.00
2013-5-9,74,64,58,49,47,45,66,55,37,30.11,30.03,23,11,32,0.00
2013-5-10,86,70,61,52,45,-100,64,45,19,30.17,30.06,21,11,32,0.00
2013-5-11,91,78,67,52,42,-100,50,31,13,30.21,30.09,20,5,33,0.00
2013-5-12,94,83,74,52,46,33,47,30,12,30.20,30.03,20,9,36,0.00
2013-5-13,94,84,75,50,41,31,38,23,11,30.10,29.98,22,9,33,0.00
2013-5-14,87,77,68,44,35,14,38,24,7,30.00,29.90,26,10,43,0.00
2013-5-15,85,76,68,49,42,31,50,31,15,29.97,29.85,31,20,53,0.00
2013-5-16,75,64,60,43,25,-100,53,36,26,29.95,29.84,30,16,45,0.00
2013-5-17,70,63,56,45,40,-100,63,48,35,29.93,29.84,33,20,48,0.00
2013-5-18,75,67,59,39,34,29,42,30,20,30.02,29.88,33,22,52,0.00
2013-5-19,80,70,59,41,36,29,43,29,21,30.04,29.92,30,16,48,0.00
2013-5-20,84,73,55,39,31,22,43,23,11,30.10,29.97,20,6,31,0.00
2013-5-21,86,77,68,39,33,24,33,21,14,30.00,29.84,23,12,36,0.00
2013-5-22,68,60,53,41,34,23,47,37,26,29.86,29.74,31,18,45,0.00
2013-5-23,68,60,52,27,22,17,30,23,17,29.89,29.77,30,17,43,0.00
2013-5-24,79,66,56,41,28,14,35,26,9,29.97,29.87,22,9,33,0.00
2013-5-25,77,68,59,36,31,24,40,26,16,29.97,29.91,23,14,36,0.00
2013-5-26,73,65,57,42,38,30,50,38,27,30.00,29.90,31,18,48,0.01
2013-5-27,74,66,59,43,40,36,54,39,28,29.98,29.81,35,19,56,0.01
2013-5-28,67,62,55,50,47,39,75,59,43,29.92,29.72,36,18,52,0.00
2013-5-29,75,67,60,51,46,40,59,48,33,29.93,29.73,32,20,50,0.00
2013-5-30,82,73,63,49,41,30,53,32,21,29.92,29.79,29,16,50,0.00
2013-5-31,93,79,68,44,34,21,41,21,10,29.98,29.83,29,11,45,0.00
2013-6-1,95,83,65,45,35,21,38,21,7,29.99,29.84,16,6,27,0.00
2013-6-2,94,84,72,48,38,28,39,21,11,29.84,29.74,18,8,32,0.00
2013-6-3,90,81,69,49,42,31,39,27,13,29.86,29.75,18,8,28,0.00
2013-6-4,92,80,68,52,46,30,46,32,11,29.92,29.85,21,8,32,0.00
2013-6-5,97,83,73,54,47,36,44,32,12,29.98,29.86,21,9,35,0.00
2013-6-6,100,85,74,55,48,33,43,30,10,29.93,29.83,22,7,33,0.00
2013-6-7,103,87,73,58,48,26,46,31,7,29.92,29.78,21,8,33,0.00
2013-6-8,106,92,77,54,43,24,37,22,7,29.88,29.78,20,9,31,0.00
2013-6-9,93,84,68,56,33,4,45,20,4,29.92,29.84,18,7,29,0.00
2013-6-10,82,74,69,45,32,12,41,23,10,29.95,29.85,28,12,40,0.00
2013-6-11,96,82,68,49,40,32,34,24,11,29.99,29.90,22,8,35,0.00
2013-6-12,91,82,72,50,40,33,36,23,13,29.98,29.91,20,9,37,0.00
2013-6-13,81,74,67,44,34,27,37,24,14,30.02,29.88,27,16,44,0.00
2013-6-14,92,77,66,41,30,11,30,20,5,29.97,29.83,18,8,34,0.00
2013-6-15,89,78,68,39,31,19,31,20,8,29.94,29.86,20,10,32,0.00
2013-6-16,86,77,69,37,34,30,27,21,14,30.01,29.92,30,1,48,0.00
2013-6-17,85,76,68,44,39,34,37,27,19,30.02,29.89,28,20,46,0.00
2013-6-18,82,74,65,44,39,35,40,29,20,29.95,29.82,25,16,41,0.00
2013-6-19,76,65,54,43,37,28,60,37,18,29.91,29.78,33,22,49,0.00
2013-6-20,80,68,62,41,32,28,45,28,17,29.92,29.78,31,18,52,0.00
2013-6-21,82,80,77,37,35,33,22,20,18,29.91,29.85,22,15,34,0.00
2013-6-22,88,82,70,40,36,31,25,20,14,29.95,29.81,23,13,38,0.00
2013-6-23,82,75,69,45,39,-100,42,28,20,29.84,29.73,28,17,48,0.00
2013-6-24,77,69,60,53,49,39,64,49,40,29.92,29.79,22,14,33,0.00
2013-6-25,87,76,65,55,53,49,62,45,31,30.00,29.89,22,13,39,0.00
2013-6-26,94,82,72,59,55,49,56,41,22,30.04,29.96,24,15,37,0.00
2013-6-27,101,85,76,59,57,50,53,40,19,30.13,30.02,23,11,36,0.00
2013-6-28,103,90,80,59,55,-100,48,33,13,30.08,29.95,21,10,38,0.00
2013-6-29,103,92,82,57,54,50,40,29,18,30.00,29.88,21,12,34,0.00
2013-6-30,108,94,86,55,50,37,31,24,9,29.93,29.82,22,10,36,0.00
2013-7-1,104,92,82,54,51,45,34,26,14,29.99,29.84,20,9,32,0.00
2013-7-2,103,91,79,54,51,46,39,26,15,30.04,29.92,27,9,40,0.00
2013-7-3,102,92,86,54,51,48,30,25,18,29.96,29.80,24,14,40,0.00
2013-7-4,105,94,86,58,53,48,32,26,17,29.86,29.76,22,13,33,0.00
2013-7-5,100,91,84,60,53,39,42,28,19,29.84,29.75,17,10,33,0.00
2013-7-6,99,90,79,46,41,30,25,18,12,29.85,29.75,17,8,33,0.00
2013-7-7,99,90,80,42,38,32,25,16,10,29.90,29.81,18,8,30,0.00
2013-7-8,99,87,80,44,36,-100,24,18,9,30.05,29.90,16,9,26,0.00
2013-7-9,101,90,80,46,36,27,26,16,10,30.10,30.00,17,10,26,0.00
2013-7-10,98,88,82,49,39,-100,30,19,13,30.07,29.92,23,-4,37,0.00
2013-7-11,85,82,76,51,46,40,39,29,22,30.03,29.90,24,9,42,0.00
2013-7-12,94,83,75,46,41,33,32,23,13,30.01,29.88,18,7,28,0.00
2013-7-13,96,86,73,43,41,38,33,21,15,30.01,29.92,19,11,37,0.00
2013-7-14,95,86,80,39,36,-100,21,17,12,30.02,29.90,23,16,39,0.00
2013-7-15,96,86,76,45,35,27,21,17,14,29.93,29.84,21,12,33,0.00
2013-7-16,92,80,71,37,30,22,23,16,8,30.01,29.89,20,10,31,0.00
2013-7-17,96,82,72,45,38,32,31,22,11,30.10,30.00,20,10,33,0.00
2013-7-18,100,84,74,48,38,27,31,21,8,30.07,29.93,22,9,33,0.00
2013-7-19,103,88,72,47,41,28,34,21,8,29.99,29.85,22,0,33,0.00
2013-7-20,99,88,72,52,44,39,31,22,14,29.92,29.80,20,8,32,0.00
2013-7-21,93,84,74,59,51,42,49,33,23,29.99,29.83,15,4,22,0.00
2013-7-22,92,81,71,61,55,46,63,41,32,30.03,29.94,18,4,31,0.00
2013-7-23,94,83,71,65,58,52,79,45,28,30.08,29.94,21,7,35,0.00
2013-7-24,96,85,77,56,54,49,46,35,24,30.03,29.91,24,13,39,0.00
2013-7-25,99,88,80,54,50,47,36,28,19,30.03,29.96,22,12,33,0.00
2013-7-26,89,84,80,63,56,49,53,40,28,30.14,30.02,20,7,33,0.04
2013-7-27,95,86,79,62,57,51,47,37,29,30.09,29.91,18,6,27,0.01
2013-7-28,95,86,80,52,48,40,35,28,15,29.93,29.84,19,10,33,0.00
2013-7-29,93,82,67,49,40,23,45,26,8,30.03,29.88,17,7,27,0.00
2013-7-30,95,83,71,50,47,42,41,29,17,30.12,30.03,17,6,24,0.00
2013-7-31,95,82,68,47,38,21,39,24,7,30.12,29.99,18,5,28,0.00
2013-8-1,87,79,72,47,39,32,39,25,17,30.02,29.88,29,18,40,0.00
2013-8-2,90,79,71,37,31,23,26,18,12,29.98,29.90,21,12,38,0.00
2013-8-3,94,82,68,37,30,18,23,16,7,30.01,29.93,15,7,26,0.00
2013-8-4,95,84,70,37,31,18,24,16,6,30.04,29.95,21,8,32,0.00
2013-8-5,95,83,73,43,34,21,27,18,7,30.03,29.93,19,11,31,0.00
2013-8-6,96,83,73,46,39,29,35,22,10,30.01,29.94,22,12,34,0.00
2013-8-7,86,77,68,47,43,34,47,31,16,30.07,29.98,21,6,32,0.00
2013-8-8,88,75,66,46,41,28,48,32,12,30.02,29.93,21,13,33,0.00
2013-8-9,89,78,65,44,39,19,46,27,8,29.98,29.92,17,9,31,0.00
2013-8-10,86,77,69,47,44,41,40,32,22,30.04,29.95,22,12,36,0.00
2013-8-11,92,79,70,49,43,32,40,30,13,30.03,29.91,22,11,37,0.00
2013-8-21,96,86,72,45,39,34,31,20,14,30.01,29.93,17,6,25,0.00
2013-8-22,96,86,70,44,39,28,35,21,12,30.02,29.89,17,7,29,0.00
2013-8-23,95,83,66,48,36,18,39,22,6,29.95,29.83,16,7,26,0.00
2013-8-24,93,80,69,46,34,-100,39,23,6,29.96,29.84,14,7,24,0.00
2013-8-25,92,78,61,46,40,19,44,28,7,30.02,29.90,17,4,23,0.00
2013-8-26,87,77,66,64,55,37,72,47,34,30.09,29.94,8,3,16,0.00
2013-8-27,84,73,67,62,60,57,72,62,47,30.00,29.95,7,1,11,0.00
2013-10-2,77,68,62,50,46,40,59,46,28,29.95,29.85,22,11,38,0.00
2013-10-3,70,64,58,40,33,22,45,32,16,29.99,29.82,30,14,51,0.00
2013-10-4,70,60,47,26,16,11,30,19,10,30.24,30.00,15,6,26,0.00
2013-10-5,76,63,49,23,17,10,30,18,9,30.35,30.22,11,5,24,0.00
2013-10-6,81,65,50,19,14,10,24,14,8,30.28,30.10,5,2,13,0.00
2013-10-7,82,67,51,28,16,9,23,15,8,30.10,29.94,15,5,26,0.00
2013-10-8,76,67,57,45,32,25,58,30,15,29.95,29.75,18,12,27,0.00
2013-10-18,78,65,51,31,24,20,42,23,12,30.16,30.05,5,2,11,0.00
2013-10-19,80,64,49,29,17,-100,33,18,9,30.17,30.04,10,2,16,0.00
2013-10-20,83,69,53,28,22,17,30,18,9,30.07,29.94,13,3,20,0.00
2013-10-21,80,66,51,24,19,15,27,17,11,30.09,29.99,6,2,14,0.00
2013-10-22,81,70,57,24,22,18,24,16,11,30.13,29.99,5,3,13,0.00
2013-10-23,80,69,56,32,24,22,29,19,12,30.03,29.92,7,3,17,0.00
2013-10-24,83,70,62,33,28,22,27,21,11,30.04,29.96,17,5,28,0.00
2013-10-25,82,71,57,34,29,22,33,22,11,30.18,30.09,7,2,11,0.00
2013-10-26,82,67,52,29,24,-100,33,21,11,30.22,30.08,6,2,11,0.00
2013-10-27,79,67,56,39,30,22,45,26,12,30.09,29.73,18,7,28,0.00
2013-10-28,56,50,46,44,34,-100,81,60,38,29.90,29.67,23,12,36,0.00
2013-10-29,55,49,43,39,36,32,77,62,49,29.99,29.89,19,11,30,0.00
2013-10-30,63,53,46,39,34,29,65,51,30,30.12,29.98,15,3,24,0.00